Time;durP1;ratioP1;P1;durP2;ratioP2;P2;SDS_P1;SDS_P2;PMS_P1;PMS_P2;Temp;Humidity;BMP_temperature;BMP_pressure;BME280_temperature;BME280_humidity;BME280_pressure;Samples;Min_cycle;Max_cycle;Signal;HPM_P1;HPM_P2
2022/09/09 00:01:33;;;;;;;;;;;;;;;19.83;100.00;101056.94;5053634;28;19921;-80
2022/09/09 00:04:04;;;;;;;;;;;;;;;19.86;100.00;101055.59;5055119;28;19936;-81
2022/09/09 00:06:41;;;;;;;;;;;;;;;;;;;;;
2022/09/09 00:09:11;;;;;;;;;;;;;;;19.84;100.00;101063.13;5055245;28;19921;-82
2022/09/09 00:11:43;;;;;;;;;;;;;;;19.81;100.00;101059.06;5055089;28;19993;-78
2022/09/09 00:14:14;;;;;;;;;;;;;;;19.83;100.00;101058.81;5055071;28;19925;-78
2022/09/09 00:16:43;;;;;;;;;;;;;;;19.88;100.00;101059.66;5049872;28;19920;-79
2022/09/09 00:19:15;;;;;;;;;;;;;;;19.91;100.00;101058.34;5056069;28;19966;-78
2022/09/09 00:21:45;;;;;;;;;;;;;;;19.79;100.00;101063.06;5054039;28;19920;-81
2022/09/09 00:24:20;;;;;;;;;;;;;;;19.43;100.00;101063.59;5051448;28;19921;-80
2022/09/09 00:26:54;;;;;;;;;;;;;;;19.29;100.00;101061.59;5053965;28;19931;-82
2022/09/09 00:29:26;;;;;;;;;;;;;;;19.56;100.00;101066.94;5053911;28;19928;-82
2022/09/09 00:31:56;;;;;;;;;;;;;;;19.35;100.00;101063.25;5054813;28;20349;-82
2022/09/09 00:34:24;;;;;;;;;;;;;;;19.22;100.00;101073.38;5054378;28;19974;-80
2022/09/09 00:36:53;;;;;;;;;;;;;;;18.96;100.00;101072.28;5055388;28;19925;-80
2022/09/09 00:39:22;;;;;;;;;;;;;;;18.52;100.00;101072.31;5054811;28;20406;-79
2022/09/09 00:41:55;;;;;;;;;;;;;;;18.52;100.00;101072.31;5053563;28;19990;-78
2022/09/09 00:44:30;;;;;;;;;;;;;;;18.83;100.00;101061.13;5054641;28;20345;-77
2022/09/09 00:47:04;;;;;;;;;;;;;;;18.80;100.00;101057.06;5054419;28;19925;-78
2022/09/09 00:49:37;;;;;;;;;;;;;;;18.97;100.00;101063.16;5053497;28;19924;-79
2022/09/09 00:52:12;;;;;;;;;;;;;;;19.04;100.00;101062.16;5054919;28;20357;-79
2022/09/09 00:54:48;;;;;;;;;;;;;;;19.39;100.00;101061.66;5054005;28;19939;-82
2022/09/09 00:57:23;;;;;;;;;;;;;;;19.34;100.00;101058.94;5053474;28;19921;-82
2022/09/09 00:59:52;;;;;;;;;;;;;;;19.58;100.00;101057.53;5053764;28;19924;-80
2022/09/09 01:02:23;;;;;;;;;;;;;;;19.64;100.00;101066.47;5050401;28;20344;-78
2022/09/09 01:04:49;;;;;;;;;;;;;;;19.63;100.00;101054.03;5050171;28;20003;-81
2022/09/09 01:07:17;;;;;;;;;;;;;;;19.51;100.00;101051.53;5054609;28;20353;-81
2022/09/09 01:09:52;;;;;;;;;;;;;;;19.61;100.00;101048.13;5054135;28;19925;-80
2022/09/09 01:12:29;;;;;;;;;;;;;;;19.60;100.00;101054.56;5054500;28;19924;-81
2022/09/09 01:15:04;;;;;;;;;;;;;;;19.28;100.00;101050.00;5052764;28;19925;-81
2022/09/09 01:17:34;;;;;;;;;;;;;;;18.49;100.00;101053.97;5054111;28;19921;-80
2022/09/09 01:20:09;;;;;;;;;;;;;;;18.87;100.00;101051.47;5053479;28;19978;-79
2022/09/09 01:22:37;;;;;;;;;;;;;;;18.80;100.00;101048.19;5052826;28;19929;-78
2022/09/09 01:25:25;;;;;;;;;;;;;;;19.22;100.00;101043.75;5053340;28;19986;-80
2022/09/09 01:27:55;;;;;;;;;;;;;;;19.27;100.00;101044.84;5030090;28;19921;-77
2022/09/09 01:30:22;;;;;;;;;;;;;;;19.42;100.00;101035.03;5049065;28;19925;-78
2022/09/09 01:32:50;;;;;;;;;;;;;;;19.31;100.00;101037.91;5057753;28;19924;-77
2022/09/09 01:35:30;;;;;;;;;;;;;;;19.25;100.00;101025.47;5056593;28;19920;-84
2022/09/09 01:38:00;;;;;;;;;;;;;;;19.37;100.00;101026.13;5055461;28;19920;-77
2022/09/09 01:40:26;;;;;;;;;;;;;;;19.56;100.00;101027.34;5056661;28;20023;-81
2022/09/09 01:42:58;;;;;;;;;;;;;;;19.51;100.00;101029.97;5057040;28;19921;-81
2022/09/09 01:45:24;;;;;;;;;;;;;;;19.51;100.00;101024.59;5056227;28;19929;-81
2022/09/09 01:47:52;;;;;;;;;;;;;;;19.41;100.00;101024.53;5056045;28;19924;-79
2022/09/09 01:50:18;;;;;;;;;;;;;;;19.48;100.00;101029.69;5056857;28;19932;-81
2022/09/09 01:52:47;;;;;;;;;;;;;;;19.54;100.00;101024.06;5056858;28;19982;-79
2022/09/09 01:55:14;;;;;;;;;;;;;;;19.55;100.00;101020.31;5057736;28;19921;-78
2022/09/09 01:57:45;;;;;;;;;;;;;;;19.48;100.00;101021.59;5057670;28;20361;-81
2022/09/09 02:02:57;;;;;;;;;;;;;;;19.52;100.00;101031.63;5092627;23;19920;-80
2022/09/09 02:05:35;;;;;;;;;;;;;;;19.37;100.00;101029.63;5047885;28;20369;-82
2022/09/09 02:08:11;;;;;;;;;;;;;;;19.23;100.00;101036.50;5045055;28;19921;-82
2022/09/09 02:10:43;;;;;;;;;;;;;;;19.13;100.00;101034.53;5050692;28;19931;-82
2022/09/09 02:13:13;;;;;;;;;;;;;;;18.90;100.00;101032.94;5048781;28;19928;-79
2022/09/09 02:15:52;;;;;;;;;;;;;;;19.00;100.00;101026.84;5046491;28;19921;-79
2022/09/09 02:18:38;;;;;;;;;;;;;;;18.96;100.00;101020.34;5038705;28;19936;-79
2022/09/09 02:21:07;;;;;;;;;;;;;;;19.01;100.00;101023.09;5044354;28;19921;-79
2022/09/09 02:23:47;;;;;;;;;;;;;;;18.84;100.00;101028.56;5042480;28;19921;-80
2022/09/09 02:26:23;;;;;;;;;;;;;;;18.84;100.00;101025.88;5043861;28;19927;-81
2022/09/09 02:29:01;;;;;;;;;;;;;;;18.81;100.00;101034.47;5052051;28;19927;-82
2022/09/09 02:31:31;;;;;;;;;;;;;;;18.85;100.00;101037.44;5042078;28;19921;-79
2022/09/09 02:34:10;;;;;;;;;;;;;;;18.79;100.00;101035.78;5048862;28;19928;-80
2022/09/09 02:36:47;;;;;;;;;;;;;;;18.55;100.00;101041.41;5043675;28;20039;-79
2022/09/09 02:39:14;;;;;;;;;;;;;;;18.44;100.00;101051.22;5051456;28;19924;-80
2022/09/09 02:41:43;;;;;;;;;;;;;;;18.22;100.00;101053.91;5049831;28;19921;-80
2022/09/09 02:44:15;;;;;;;;;;;;;;;18.27;100.00;101055.84;5048170;28;19987;-82
2022/09/09 02:46:54;;;;;;;;;;;;;;;17.89;100.00;101052.09;5053720;28;20242;-82
2022/09/09 02:49:28;;;;;;;;;;;;;;;17.88;100.00;101047.75;5055211;28;19987;-82
2022/09/09 02:52:02;;;;;;;;;;;;;;;17.89;100.00;101051.28;5048436;28;19974;-79
2022/09/09 02:54:39;;;;;;;;;;;;;;;17.37;100.00;101046.94;5049621;28;19931;-80
2022/09/09 02:57:11;;;;;;;;;;;;;;;17.50;100.00;101051.19;5040979;28;19921;-79
2022/09/09 02:59:44;;;;;;;;;;;;;;;17.39;100.00;101052.88;5041610;28;19931;-82
2022/09/09 03:02:16;;;;;;;;;;;;;;;17.70;100.00;101043.47;5047462;28;19935;-79
2022/09/09 03:04:51;;;;;;;;;;;;;;;18.09;100.00;101043.50;5038522;28;19925;-81
2022/09/09 03:07:21;;;;;;;;;;;;;;;17.92;100.00;101042.72;5038439;28;20011;-82
2022/09/09 03:09:48;;;;;;;;;;;;;;;18.27;100.00;101043.19;5042366;28;20020;-81
2022/09/09 03:12:38;;;;;;;;;;;;;;;18.19;100.00;101042.84;5043690;28;20387;-83
2022/09/09 03:15:06;;;;;;;;;;;;;;;18.51;100.00;101042.97;5042863;28;19982;-79
2022/09/09 03:17:36;;;;;;;;;;;;;;;18.61;100.00;101037.72;5051863;28;20276;-81
2022/09/09 03:20:06;;;;;;;;;;;;;;;18.60;100.00;101025.31;5052573;28;19939;-82
2022/09/09 03:22:37;;;;;;;;;;;;;;;18.79;100.00;101020.47;5052659;28;20011;-81
2022/09/09 03:25:23;;;;;;;;;;;;;;;18.53;100.00;101022.81;5039185;28;19921;-82
2022/09/09 03:27:52;;;;;;;;;;;;;;;18.39;100.00;101023.44;5040538;28;19925;-82
2022/09/09 03:30:21;;;;;;;;;;;;;;;18.79;100.00;101025.00;5046374;28;19935;-81
2022/09/09 03:32:55;;;;;;;;;;;;;;;18.85;100.00;101015.91;5049627;28;19921;-81
2022/09/09 03:35:24;;;;;;;;;;;;;;;18.79;100.00;101025.00;5035349;28;19939;-82
2022/09/09 03:37:55;;;;;;;;;;;;;;;18.91;100.00;101026.50;5038613;28;20008;-82
2022/09/09 03:40:25;;;;;;;;;;;;;;;18.87;100.00;101017.28;5036314;28;19920;-79
2022/09/09 03:42:58;;;;;;;;;;;;;;;18.83;100.00;101023.47;5040042;28;19972;-78
2022/09/09 03:45:30;;;;;;;;;;;;;;;18.80;100.00;101021.28;5039872;28;19921;-79
2022/09/09 03:47:59;;;;;;;;;;;;;;;18.77;100.00;101031.47;5037945;28;20389;-79
2022/09/09 03:50:53;;;;;;;;;;;;;;;18.85;100.00;101027.53;5039434;28;20321;-83
2022/09/09 03:53:31;;;;;;;;;;;;;;;18.60;100.00;101025.31;5042911;28;20015;-82
2022/09/09 03:56:01;;;;;;;;;;;;;;;18.72;100.00;101022.50;5039621;28;20349;-82
2022/09/09 03:58:28;;;;;;;;;;;;;;;18.44;100.00;101037.78;5045677;28;19924;-79
2022/09/09 04:00:56;;;;;;;;;;;;;;;18.65;100.00;101025.38;5047987;28;19920;-81
2022/09/09 04:03:24;;;;;;;;;;;;;;;18.72;100.00;101026.00;5040361;28;20000;-81
2022/09/09 04:06:01;;;;;;;;;;;;;;;18.77;100.00;101033.34;5050835;28;20383;-82
2022/09/09 04:11:16;;;;;;;;;;;;;;;18.85;100.00;101032.06;5033539;28;19928;-78
2022/09/09 04:13:44;;;;;;;;;;;;;;;18.80;100.00;101034.72;5048016;28;19921;-78
2022/09/09 04:16:14;;;;;;;;;;;;;;;18.84;100.00;101038.53;5048219;28;20871;-83
2022/09/09 04:18:41;;;;;;;;;;;;;;;18.96;100.00;101026.53;5049157;28;19975;-79
2022/09/09 04:21:12;;;;;;;;;;;;;;;19.02;100.00;101030.09;5035004;28;19928;-82
2022/09/09 04:23:39;;;;;;;;;;;;;;;19.06;100.00;101036.59;5040256;28;19921;-79
2022/09/09 04:26:17;;;;;;;;;;;;;;;19.14;100.00;101041.53;5034552;28;19921;-79
2022/09/09 04:28:43;;;;;;;;;;;;;;;19.01;100.00;101033.06;5035567;28;20365;-79
2022/09/09 04:31:14;;;;;;;;;;;;;;;19.13;100.00;101031.81;5050921;28;19929;-82
2022/09/09 04:33:49;;;;;;;;;;;;;;;19.24;100.00;101038.09;5051842;28;19939;-81
2022/09/09 04:36:19;;;;;;;;;;;;;;;19.28;100.00;101041.13;5052498;28;20295;-79
2022/09/09 04:38:51;;;;;;;;;;;;;;;19.36;100.00;101037.94;5053525;28;19929;-84
2022/09/09 04:41:18;;;;;;;;;;;;;;;19.66;100.00;101030.13;5050657;28;19985;-79
2022/09/09 04:43:47;;;;;;;;;;;;;;;19.63;100.00;101036.00;5046420;28;20007;-83
2022/09/09 04:46:25;;;;;;;;;;;;;;;19.71;100.00;101042.81;5051651;28;19984;-78
2022/09/09 04:49:13;;;;;;;;;;;;;;;19.67;100.00;101052.50;5046143;28;19921;-81
2022/09/09 04:51:43;;;;;;;;;;;;;;;19.79;100.00;101042.34;5048197;28;19998;-83
2022/09/09 04:54:11;;;;;;;;;;;;;;;19.81;100.00;101042.09;5045770;28;19936;-83
2022/09/09 04:56:44;;;;;;;;;;;;;;;19.88;100.00;101034.59;5049539;28;19996;-83
2022/09/09 04:59:12;;;;;;;;;;;;;;;20.06;100.00;101031.47;5051123;28;19925;-82
2022/09/09 05:01:38;;;;;;;;;;;;;;;20.03;100.00;101042.78;5048614;28;20308;-82
2022/09/09 05:04:08;;;;;;;;;;;;;;;20.27;100.00;101040.47;5054499;28;19929;-80
2022/09/09 05:06:37;;;;;;;;;;;;;;;20.44;100.00;101044.84;5054563;28;20349;-79
2022/09/09 05:09:14;;;;;;;;;;;;;;;20.57;100.00;101047.91;5053071;28;19920;-83
2022/09/09 05:11:43;;;;;;;;;;;;;;;20.57;100.00;101049.78;5055018;28;20028;-81
2022/09/09 05:17:06;;;;;;;;;;;;;;;20.74;100.00;101041.47;5053354;28;20284;-79
2022/09/09 05:19:33;;;;;;;;;;;;;;;20.97;100.00;101038.28;5051112;28;19928;-82
2022/09/09 05:22:24;;;;;;;;;;;;;;;;;;;;;
2022/09/09 05:24:56;;;;;;;;;;;;;;;20.92;100.00;101035.59;5053740;28;19925;-79
2022/09/09 05:27:26;;;;;;;;;;;;;;;21.15;100.00;101045.06;5053802;28;19931;-79
2022/09/09 05:29:57;;;;;;;;;;;;;;;21.39;100.00;101033.75;5048538;28;19975;-79
2022/09/09 05:32:26;;;;;;;;;;;;;;;21.39;100.00;101039.16;5038220;28;20412;-80
2022/09/09 05:37:49;;;;;;;;;;;;;;;;;;;;;
2022/09/09 05:40:19;;;;;;;;;;;;;;;23.41;100.00;101029.69;5038780;28;19928;-79
2022/09/09 05:42:46;;;;;;;;;;;;;;;23.20;100.00;101031.75;5047329;28;19928;-79
2022/09/09 05:45:12;;;;;;;;;;;;;;;23.27;100.00;101023.34;5045459;28;19999;-77
2022/09/09 05:47:39;;;;;;;;;;;;;;;23.58;100.00;101026.56;5053103;28;19964;-80
2022/09/09 05:50:16;;;;;;;;;;;;;;;23.59;100.00;101030.88;5041761;28;19929;-84
2022/09/09 05:52:49;;;;;;;;;;;;;;;23.31;100.00;101013.53;5049055;28;19920;-77
2022/09/09 05:55:25;;;;;;;;;;;;;;;23.24;100.00;101015.78;5045807;28;19921;-78
2022/09/09 05:57:53;;;;;;;;;;;;;;;23.02;100.00;101010.78;5040724;28;20423;-79
2022/09/09 06:00:23;;;;;;;;;;;;;;;23.01;100.00;101017.28;5040877;28;19921;-77
2022/09/09 06:02:53;;;;;;;;;;;;;;;22.96;100.00;101017.31;5036657;28;19990;-81
2022/09/09 06:05:22;;;;;;;;;;;;;;;23.25;100.00;101009.25;5047008;28;20238;-79
2022/09/09 06:07:50;;;;;;;;;;;;;;;23.30;100.00;101009.22;5054004;28;19964;-77
2022/09/09 06:10:21;;;;;;;;;;;;;;;23.83;100.00;101008.47;5049718;28;19920;-80
2022/09/09 06:12:53;;;;;;;;;;;;;;;23.83;100.00;100997.63;5052676;28;19971;-80
2022/09/09 06:15:21;;;;;;;;;;;;;;;24.00;100.00;100998.78;5053587;28;19921;-79
2022/09/09 06:17:50;;;;;;;;;;;;;;;24.06;99.02;100996.00;5052548;28;20020;-77
2022/09/09 06:20:17;;;;;;;;;;;;;;;24.14;100.00;100995.34;5054189;28;20046;-78
2022/09/09 06:22:48;;;;;;;;;;;;;;;24.32;100.00;100999.19;5052931;28;20287;-79
2022/09/09 06:25:18;;;;;;;;;;;;;;;24.39;97.22;101000.47;5052979;28;19928;-78
2022/09/09 06:27:54;;;;;;;;;;;;;;;24.45;98.05;101001.25;5051643;28;20016;-80
2022/09/09 06:30:24;;;;;;;;;;;;;;;24.76;94.33;100998.09;5048150;28;19960;-77
2022/09/09 06:33:09;;;;;;;;;;;;;;;24.93;97.08;100992.91;5051514;28;19924;-78
2022/09/09 06:35:40;;;;;;;;;;;;;;;25.33;100.00;100999.66;5050272;28;19960;-81
2022/09/09 06:38:11;;;;;;;;;;;;;;;25.27;94.93;100998.13;5047587;28;19921;-78
2022/09/09 06:40:51;;;;;;;;;;;;;;;25.09;92.69;100993.50;5049098;28;20602;-80
2022/09/09 06:43:34;;;;;;;;;;;;;;;25.21;92.78;100998.50;5047935;28;19928;-82
2022/09/09 06:46:08;;;;;;;;;;;;;;;25.38;93.01;101000.66;5051897;28;19978;-80
2022/09/09 06:48:38;;;;;;;;;;;;;;;25.68;88.63;101002.81;5048791;28;19925;-81
2022/09/09 06:51:08;;;;;;;;;;;;;;;25.72;92.02;100987.53;5049916;28;20007;-78
2022/09/09 06:53:41;;;;;;;;;;;;;;;25.84;85.09;100992.50;5054929;28;19921;-78
2022/09/09 06:56:22;;;;;;;;;;;;;;;26.02;90.72;100990.75;5056780;28;19920;-81
2022/09/09 06:58:56;;;;;;;;;;;;;;;25.87;87.15;101012.84;5049312;28;19931;-79
2022/09/09 07:01:27;;;;;;;;;;;;;;;25.83;96.75;101003.69;5049434;28;19920;-81
2022/09/09 07:03:55;;;;;;;;;;;;;;;25.88;92.34;101001.66;5049526;28;20015;-77
2022/09/09 07:06:26;;;;;;;;;;;;;;;26.14;86.93;101001.16;5049438;28;19924;-78
2022/09/09 07:09:03;;;;;;;;;;;;;;;26.23;88.30;100997.44;5048991;28;19921;-80
2022/09/09 07:11:35;;;;;;;;;;;;;;;26.57;81.60;100989.94;5050730;28;20057;-82
2022/09/09 07:14:05;;;;;;;;;;;;;;;26.37;87.25;101005.56;5046888;28;19925;-79
2022/09/09 07:16:33;;;;;;;;;;;;;;;26.33;90.82;100993.69;5053949;28;19989;-79
2022/09/09 07:19:00;;;;;;;;;;;;;;;26.62;79.15;100989.78;5055215;28;19929;-78
2022/09/09 07:21:32;;;;;;;;;;;;;;;26.89;80.95;100988.91;5042155;28;20365;-79
2022/09/09 07:23:59;;;;;;;;;;;;;;;27.16;78.77;100993.44;5041545;28;19924;-82
2022/09/09 07:26:32;;;;;;;;;;;;;;;27.49;72.13;100991.22;5043180;28;19943;-84
2022/09/09 07:29:00;;;;;;;;;;;;;;;27.55;70.14;100995.44;5046058;28;19980;-79
2022/09/09 07:31:35;;;;;;;;;;;;;;;27.55;65.01;100994.63;5048331;28;20038;-79
2022/09/09 07:34:07;;;;;;;;;;;;;;;27.77;68.14;100996.50;5049235;28;19940;-80
2022/09/09 07:36:45;;;;;;;;;;;;;;;28.00;70.44;100994.53;5043025;28;19920;-80
2022/09/09 07:39:22;;;;;;;;;;;;;;;28.22;65.94;100997.13;5042391;28;20288;-83
2022/09/09 07:41:58;;;;;;;;;;;;;;;27.96;64.99;100996.25;5049482;28;19931;-79
2022/09/09 07:44:40;;;;;;;;;;;;;;;28.12;58.97;100997.44;5041968;28;20399;-80
2022/09/09 07:47:11;;;;;;;;;;;;;;;28.55;60.71;101010.38;5040143;28;19987;-82
2022/09/09 07:49:40;;;;;;;;;;;;;;;28.53;57.92;101005.25;5038766;28;19983;-80
2022/09/09 07:52:09;;;;;;;;;;;;;;;28.51;62.28;101007.50;5045842;28;20007;-79
2022/09/09 07:54:45;;;;;;;;;;;;;;;28.88;58.20;101009.91;5040868;28;19958;-83
2022/09/09 07:57:12;;;;;;;;;;;;;;;29.08;56.77;101008.47;5045726;28;19921;-82
2022/09/09 07:59:44;;;;;;;;;;;;;;;28.96;56.01;101001.72;5047176;28;19968;-81
2022/09/09 08:02:22;;;;;;;;;;;;;;;29.05;60.77;100999.00;5046337;28;19921;-82
2022/09/09 08:04:56;;;;;;;;;;;;;;;29.30;60.46;100994.59;5039778;28;19932;-82
2022/09/09 08:07:23;;;;;;;;;;;;;;;29.56;58.56;100994.53;5041391;28;20027;-78
2022/09/09 08:09:50;;;;;;;;;;;;;;;29.42;58.11;101000.19;5046010;28;19925;-81
2022/09/09 08:12:18;;;;;;;;;;;;;;;29.71;58.75;100997.88;5039733;28;20284;-79
2022/09/09 08:14:49;;;;;;;;;;;;;;;29.62;57.31;101000.63;5045683;28;19947;-82
2022/09/09 08:17:17;;;;;;;;;;;;;;;29.80;54.65;101004.91;5033867;28;20369;-78
2022/09/09 08:20:06;;;;;;;;;;;;;;;30.03;54.01;101002.72;5048353;28;20296;-83
2022/09/09 08:22:38;;;;;;;;;;;;;;;30.15;51.99;101012.97;5037760;28;20278;-79
2022/09/09 08:25:08;;;;;;;;;;;;;;;29.76;58.80;101006.72;5036803;28;20280;-77
2022/09/09 08:27:45;;;;;;;;;;;;;;;29.64;57.15;100996.44;5045134;28;20015;-78
2022/09/09 08:30:12;;;;;;;;;;;;;;;30.25;47.08;100981.66;5043147;28;19927;-78
2022/09/09 08:32:50;;;;;;;;;;;;;;;30.29;47.27;100977.16;5042358;28;19920;-82
2022/09/09 08:35:35;;;;;;;;;;;;;;;;;;;;;
2022/09/09 08:38:05;;;;;;;;;;;;;;;30.78;47.62;100974.69;5047087;28;19927;-79
2022/09/09 08:40:35;;;;;;;;;;;;;;;30.39;50.07;100974.00;5045387;28;20023;-80
2022/09/09 08:43:12;;;;;;;;;;;;;;;31.02;46.49;100963.78;5042147;28;19929;-78
2022/09/09 08:45:55;;;;;;;;;;;;;;;31.24;47.29;100970.00;5042785;28;19921;-80
2022/09/09 08:48:45;;;;;;;;;;;;;;;30.91;49.03;100962.59;5050514;28;19928;-78
2022/09/09 08:51:13;;;;;;;;;;;;;;;31.47;48.61;100953.97;5045523;28;19948;-81
2022/09/09 08:53:46;;;;;;;;;;;;;;;31.72;45.62;100941.03;5042706;28;20376;-78
2022/09/09 08:56:20;;;;;;;;;;;;;;;31.83;48.56;100939.44;5035472;28;19932;-80
2022/09/09 08:58:57;;;;;;;;;;;;;;;32.00;42.81;100943.91;5045632;28;20008;-79
2022/09/09 09:01:30;;;;;;;;;;;;;;;32.07;42.46;100944.09;5038513;28;19931;-83
2022/09/09 09:04:13;;;;;;;;;;;;;;;32.61;43.94;100954.75;5048083;28;19921;-78
2022/09/09 09:06:46;;;;;;;;;;;;;;;32.11;44.43;100947.78;5046069;28;19921;-82
2022/09/09 09:09:26;;;;;;;;;;;;;;;31.16;48.00;100937.97;5044955;28;19935;-83
2022/09/09 09:12:00;;;;;;;;;;;;;;;32.32;43.39;100920.13;5050700;28;19925;-82
2022/09/09 09:14:30;;;;;;;;;;;;;;;32.61;43.25;100929.19;5043936;28;19932;-78
2022/09/09 09:17:00;;;;;;;;;;;;;;;31.91;45.97;100932.25;5045182;28;20361;-79
2022/09/09 09:19:35;;;;;;;;;;;;;;;32.31;45.89;100932.25;5042643;28;19920;-79
2022/09/09 09:22:15;;;;;;;;;;;;;;;31.80;46.39;100939.31;5048899;28;19921;-84
2022/09/09 09:24:54;;;;;;;;;;;;;;;32.20;48.09;100944.91;5042726;28;20983;-82
2022/09/09 09:27:34;;;;;;;;;;;;;;;32.53;43.88;100936.47;5043741;28;20284;-83
2022/09/09 09:30:06;;;;;;;;;;;;;;;32.17;44.35;100929.91;5038798;28;19921;-77
2022/09/09 09:32:47;;;;;;;;;;;;;;;;;;;;;
2022/09/09 09:35:16;;;;;;;;;;;;;;;32.49;47.71;100912.75;5043567;28;19921;-78
2022/09/09 09:37:49;;;;;;;;;;;;;;;32.28;46.93;100913.72;5044250;28;20404;-79
2022/09/09 09:40:19;;;;;;;;;;;;;;;32.79;41.35;100913.19;5051860;28;20837;-80
2022/09/09 09:42:54;;;;;;;;;;;;;;;32.90;41.12;100921.75;5057354;28;19924;-83
2022/09/09 09:45:31;;;;;;;;;;;;;;;32.94;38.46;100903.38;5046545;28;19924;-80
2022/09/09 09:48:09;;;;;;;;;;;;;;;32.39;42.59;100903.03;5050283;28;19929;-78
2022/09/09 09:50:49;;;;;;;;;;;;;;;32.87;42.09;100897.69;5059653;28;19927;-82
2022/09/09 09:53:26;;;;;;;;;;;;;;;32.92;40.73;100909.25;5051647;28;19925;-80
2022/09/09 09:56:00;;;;;;;;;;;;;;;33.32;39.75;100900.03;5049987;28;20419;-78
2022/09/09 09:58:28;;;;;;;;;;;;;;;33.35;40.42;100904.84;5052897;28;19936;-78
2022/09/09 10:00:59;;;;;;;;;;;;;;;32.95;42.63;100896.72;5055961;28;19932;-82
2022/09/09 10:03:27;;;;;;;;;;;;;;;33.19;40.53;100902.06;5055888;28;19921;-79
2022/09/09 10:06:02;;;;;;;;;;;;;;;33.33;39.15;100901.63;5054388;28;20348;-81
2022/09/09 10:08:35;;;;;;;;;;;;;;;33.15;40.09;100905.91;5054155;28;20272;-78
2022/09/09 10:11:09;;;;;;;;;;;;;;;33.36;39.77;100902.88;5056292;28;19925;-79
2022/09/09 10:13:43;;;;;;;;;;;;;;;33.17;41.00;100904.41;5053495;28;19928;-80
2022/09/09 10:16:33;;;;;;;;;;;;;;;33.64;37.55;100900.81;5054282;28;19931;-79
2022/09/09 10:19:05;;;;;;;;;;;;;;;33.99;38.25;100902.78;5054562;28;19928;-80
2022/09/09 10:22:03;;;;;;;;;;;;;;;33.89;38.38;100904.16;5052002;28;20015;-80
2022/09/09 10:24:44;;;;;;;;;;;;;;;34.03;38.42;100903.69;5054135;28;19928;-79
2022/09/09 10:27:28;;;;;;;;;;;;;;;34.37;37.63;100901.22;5051595;28;19955;-82
2022/09/09 10:30:08;;;;;;;;;;;;;;;33.00;43.75;100899.25;5056976;28;19924;-81
2022/09/09 10:32:38;;;;;;;;;;;;;;;33.74;39.52;100894.78;5048754;28;19995;-78
2022/09/09 10:35:13;;;;;;;;;;;;;;;34.16;40.33;100893.31;5046513;28;20425;-84
2022/09/09 10:37:55;;;;;;;;;;;;;;;34.22;38.49;100891.06;5049818;28;19956;-77
2022/09/09 10:40:29;;;;;;;;;;;;;;;34.03;40.30;100897.38;5039803;28;19928;-81
2022/09/09 10:43:05;;;;;;;;;;;;;;;33.09;41.28;100885.31;5035932;28;19925;-77
2022/09/09 10:45:43;;;;;;;;;;;;;;;31.82;45.16;100885.66;5045577;28;20336;-80
2022/09/09 10:48:18;;;;;;;;;;;;;;;33.54;40.75;100881.31;5039512;28;19921;-79
2022/09/09 10:50:51;;;;;;;;;;;;;;;33.85;38.88;100880.44;5046540;28;20332;-78
2022/09/09 10:53:26;;;;;;;;;;;;;;;34.27;37.84;100888.81;5038557;28;20316;-82
2022/09/09 10:56:00;;;;;;;;;;;;;;;34.17;38.48;100884.69;5039499;28;19931;-78
2022/09/09 10:58:40;;;;;;;;;;;;;;;34.12;34.57;100884.19;5046580;28;19982;-81
2022/09/09 11:01:17;;;;;;;;;;;;;;;34.33;36.69;100884.63;5044235;28;19932;-78
2022/09/09 11:03:50;;;;;;;;;;;;;;;34.74;34.52;100874.00;5042610;28;20012;-78
2022/09/09 11:06:23;;;;;;;;;;;;;;;34.97;33.99;100874.00;5044731;28;19921;-78
2022/09/09 11:09:09;;;;;;;;;;;;;;;35.40;34.28;100873.91;5049600;28;19960;-82
2022/09/09 11:11:38;;;;;;;;;;;;;;;35.26;33.95;100880.03;5048206;28;20360;-78
2022/09/09 11:14:11;;;;;;;;;;;;;;;34.96;33.94;100879.88;5046004;28;19925;-82
2022/09/09 11:16:42;;;;;;;;;;;;;;;35.70;32.88;100869.25;5050501;28;19922;-81
2022/09/09 11:19:17;;;;;;;;;;;;;;;35.36;35.57;100867.53;5041708;28;19921;-79
2022/09/09 11:21:53;;;;;;;;;;;;;;;35.42;32.34;100864.09;5040706;28;19944;-79
2022/09/09 11:24:27;;;;;;;;;;;;;;;34.89;34.03;100861.25;5045694;28;20332;-81
2022/09/09 11:27:09;;;;;;;;;;;;;;;34.83;35.73;100865.50;5050011;28;19921;-79
2022/09/09 11:30:07;;;;;;;;;;;;;;;34.57;38.01;100866.19;5038129;28;19921;-77
2022/09/09 11:33:03;;;;;;;;;;;;;;;34.55;36.85;100855.50;5050791;28;19924;-78
2022/09/09 11:35:53;;;;;;;;;;;;;;;34.64;35.80;100861.59;5023417;28;19920;-78
2022/09/09 11:38:30;;;;;;;;;;;;;;;34.25;37.27;100855.31;5046791;28;19996;-82
2022/09/09 11:41:00;;;;;;;;;;;;;;;34.64;34.99;100855.28;5040863;28;19929;-77
2022/09/09 11:43:33;;;;;;;;;;;;;;;34.83;34.49;100852.50;5044476;28;19921;-77
2022/09/09 11:46:02;;;;;;;;;;;;;;;34.87;33.03;100850.56;5044558;28;19924;-81
2022/09/09 11:48:38;;;;;;;;;;;;;;;34.87;34.39;100844.28;5039404;28;20059;-78
2022/09/09 11:51:08;;;;;;;;;;;;;;;35.68;34.37;100837.66;5046323;28;19921;-82
2022/09/09 11:53:48;;;;;;;;;;;;;;;35.47;34.58;100844.44;5050531;28;19929;-78
2022/09/09 11:56:26;;;;;;;;;;;;;;;35.60;34.93;100834.00;5043459;28;19935;-82
2022/09/09 11:59:01;;;;;;;;;;;;;;;35.63;34.50;100829.69;5046027;28;19987;-80
2022/09/09 12:01:49;;;;;;;;;;;;;;;;;;;;;
2022/09/09 12:04:32;;;;;;;;;;;;;;;35.13;32.92;100828.94;5033150;28;19932;-78
2022/09/09 12:07:05;;;;;;;;;;;;;;;34.93;33.79;100834.53;5051247;28;20000;-82
2022/09/09 12:09:44;;;;;;;;;;;;;;;35.35;34.90;100833.63;5040056;28;20372;-82
2022/09/09 12:12:28;;;;;;;;;;;;;;;35.83;31.31;100824.81;5049795;28;19984;-78
2022/09/09 12:15:17;;;;;;;;;;;;;;;35.15;34.91;100819.13;5051953;28;19994;-78
2022/09/09 12:17:45;;;;;;;;;;;;;;;34.44;38.17;100821.44;5048372;28;19986;-83
2022/09/09 12:20:14;;;;;;;;;;;;;;;35.66;34.68;100810.41;5051586;28;19974;-80
2022/09/09 12:22:51;;;;;;;;;;;;;;;35.67;32.40;100808.44;5052359;28;19932;-77
2022/09/09 12:25:23;;;;;;;;;;;;;;;35.53;31.50;100801.53;5046866;28;20280;-77
2022/09/09 12:28:00;;;;;;;;;;;;;;;35.24;32.74;100805.84;5041313;28;19927;-77
2022/09/09 12:30:33;;;;;;;;;;;;;;;34.71;35.08;100796.69;5041833;28;19929;-79
2022/09/09 12:33:03;;;;;;;;;;;;;;;34.68;33.08;100803.78;5042632;28;19929;-79
2022/09/09 12:35:31;;;;;;;;;;;;;;;34.32;35.76;100802.31;5044320;28;19921;-78
2022/09/09 12:37:59;;;;;;;;;;;;;;;34.35;35.08;100794.09;5047916;28;19933;-80
2022/09/09 12:40:27;;;;;;;;;;;;;;;34.43;37.93;100792.25;5050002;28;19925;-77
2022/09/09 12:42:55;;;;;;;;;;;;;;;34.55;36.92;100789.34;5041762;28;19928;-79
2022/09/09 12:45:24;;;;;;;;;;;;;;;33.90;40.72;100781.00;5040582;28;19920;-81
2022/09/09 12:47:55;;;;;;;;;;;;;;;33.45;39.76;100774.13;5043153;28;19921;-79
2022/09/09 12:50:25;;;;;;;;;;;;;;;31.01;45.93;100766.66;5047871;28;19921;-81
2022/09/09 12:52:53;;;;;;;;;;;;;;;29.78;51.34;100774.53;5042951;28;19931;-81
2022/09/09 12:55:21;;;;;;;;;;;;;;;31.77;45.03;100764.28;5050374;28;19925;-80
2022/09/09 12:57:50;;;;;;;;;;;;;;;31.91;45.17;100770.22;5046270;28;19921;-84
2022/09/09 13:00:18;;;;;;;;;;;;;;;33.60;41.20;100759.53;5046287;28;19935;-79
2022/09/09 13:02:50;;;;;;;;;;;;;;;33.87;39.89;100754.19;5039038;28;19932;-83
2022/09/09 13:05:21;;;;;;;;;;;;;;;35.07;34.75;100749.25;5033545;28;20007;-77
2022/09/09 13:07:48;;;;;;;;;;;;;;;34.35;39.12;100757.47;5033230;28;19928;-77
2022/09/09 13:10:15;;;;;;;;;;;;;;;34.69;37.09;100744.69;5036333;28;19963;-79
2022/09/09 13:12:42;;;;;;;;;;;;;;;36.55;34.14;100752.56;5042859;28;19929;-80
2022/09/09 13:15:20;;;;;;;;;;;;;;;36.82;30.34;100738.56;5043130;28;20337;-77
2022/09/09 13:17:51;;;;;;;;;;;;;;;34.37;38.05;100749.59;5038606;28;19921;-78
2022/09/09 13:20:20;;;;;;;;;;;;;;;33.74;43.24;100757.09;5045021;28;19986;-82